createdAt,value
2023-01-06T17:05:47.843Z,3.00
2023-01-06T17:08:18.397Z,3.00
2023-01-06T17:10:47.038Z,2.78
2023-01-06T17:13:34.774Z,2.95
2023-01-06T17:16:14.573Z,3.05
2023-01-06T17:18:53.057Z,3.45
2023-01-06T17:21:26.383Z,4.57
2023-01-06T17:23:58.727Z,4.25
2023-01-06T17:26:29.278Z,2.90
2023-01-06T17:29:01.474Z,3.28
2023-01-06T17:31:36.548Z,5.95
2023-01-06T17:34:12.748Z,3.83
2023-01-06T17:36:44.916Z,4.88
2023-01-06T17:39:21.306Z,2.88
2023-01-06T17:41:49.631Z,3.78
2023-01-06T17:44:22.400Z,3.83
2023-01-06T17:46:51.378Z,4.38
2023-01-06T17:49:38.493Z,4.68
2023-01-06T17:52:17.567Z,6.72
2023-01-06T17:55:11.746Z,8.57
2023-01-06T17:57:42.656Z,8.77
2023-01-06T18:00:23.785Z,6.18
2023-01-06T18:02:56.899Z,3.70
2023-01-06T18:06:05.151Z,5.10
2023-01-06T18:08:37.782Z,4.82
2023-01-06T18:11:24.251Z,8.63
2023-01-06T18:13:53.020Z,5.07
2023-01-06T18:16:32.452Z,5.63
2023-01-06T18:19:18.071Z,5.75
2023-01-06T18:21:46.576Z,6.40
2023-01-06T18:24:22.446Z,6.30
2023-01-06T18:26:54.883Z,7.18
2023-01-06T18:29:25.774Z,6.55
2023-01-06T18:31:55.383Z,9.05
2023-01-06T18:34:29.737Z,8.30
2023-01-06T18:36:59.758Z,9.00
2023-01-06T18:39:31.890Z,9.23
2023-01-06T18:42:09.374Z,14.93
2023-01-06T18:44:40.964Z,12.82
2023-01-06T18:47:15.653Z,9.50
2023-01-06T18:49:44.476Z,8.98
2023-01-06T18:52:40.853Z,8.40
2023-01-06T18:55:25.988Z,7.70
2023-01-06T18:58:03.810Z,8.05
2023-01-06T19:00:36.260Z,7.75
2023-01-06T19:03:37.567Z,7.25
2023-01-06T19:06:47.157Z,6.85
2023-01-06T19:09:25.142Z,8.20
2023-01-06T19:12:16.932Z,9.32
2023-01-06T19:14:48.269Z,7.75
2023-01-06T19:17:23.979Z,8.35
2023-01-06T19:19:53.589Z,9.00
2023-01-06T19:22:25.281Z,9.13
2023-01-06T19:25:01.429Z,9.25
2023-01-06T19:27:44.098Z,8.15
2023-01-06T19:30:35.635Z,7.90
2023-01-06T19:33:36.516Z,7.55
2023-01-06T19:36:44.197Z,7.70
2023-01-06T19:39:35.171Z,8.23
2023-01-06T19:42:17.255Z,8.13
2023-01-06T19:44:51.658Z,7.68
2023-01-06T19:47:24.128Z,8.25
2023-01-06T19:50:00.233Z,7.72
2023-01-06T19:52:34.629Z,8.55
2023-01-06T19:55:28.465Z,7.75
2023-01-06T19:57:59.049Z,7.97
2023-01-06T20:00:32.233Z,8.93
2023-01-06T20:03:03.667Z,10.13
2023-01-06T20:05:32.998Z,10.00
2023-01-06T20:08:04.448Z,8.90
2023-01-06T20:10:33.144Z,9.30
2023-01-06T20:13:01.731Z,10.05
2023-01-06T20:15:31.643Z,9.65
2023-01-06T20:17:59.909Z,9.77
2023-01-06T20:20:28.375Z,10.13
2023-01-06T20:22:56.774Z,9.35
2023-01-06T20:25:27.243Z,9.73
2023-01-06T20:27:55.577Z,10.50
2023-01-06T20:30:24.308Z,9.68
2023-01-06T20:32:54.106Z,9.32
2023-01-06T20:35:22.538Z,8.63
2023-01-06T20:37:50.873Z,8.60
2023-01-06T20:40:19.548Z,8.70
2023-01-06T20:42:47.942Z,8.45
2023-01-06T20:45:16.150Z,8.57
2023-01-06T20:47:45.039Z,9.30
2023-01-06T20:50:14.965Z,9.95
2023-01-06T20:52:45.495Z,10.85
2023-01-06T20:55:15.550Z,12.00
2023-01-06T20:57:43.882Z,19.48
2023-01-06T21:00:13.563Z,11.25
2023-01-06T21:02:42.098Z,17.70
2023-01-06T21:05:11.582Z,15.18
2023-01-06T21:07:48.982Z,10.75
2023-01-06T21:10:20.047Z,10.82
2023-01-06T21:12:48.677Z,10.13
2023-01-06T21:15:17.316Z,10.30
2023-01-06T21:17:45.755Z,9.73
2023-01-06T21:20:16.859Z,8.90
2023-01-06T21:22:48.675Z,9.30
2023-01-06T21:25:19.946Z,9.15
2023-01-06T21:27:50.337Z,8.75
2023-01-06T21:30:19.356Z,9.25
2023-01-06T21:32:48.163Z,9.00
2023-01-06T21:35:16.811Z,9.80
2023-01-06T21:37:46.940Z,9.35
2023-01-06T21:40:15.404Z,9.18
2023-01-06T21:43:01.331Z,9.13
2023-01-06T21:45:29.989Z,9.35
2023-01-06T21:47:59.329Z,8.70
2023-01-06T21:50:32.425Z,9.60
2023-01-06T21:53:07.583Z,8.45
2023-01-06T21:58:43.249Z,7.00
2023-01-06T22:01:11.970Z,7.28
2023-01-06T22:03:40.693Z,7.85
2023-01-06T22:06:11.077Z,8.00
2023-01-06T22:08:42.799Z,7.53
2023-01-06T22:11:12.172Z,6.90
2023-01-06T22:13:42.287Z,6.43
2023-01-06T22:16:11.107Z,6.38
2023-01-06T22:18:39.587Z,6.65
2023-01-06T22:21:08.673Z,6.38
2023-01-06T22:23:38.905Z,6.55
2023-01-06T22:26:09.430Z,6.60
2023-01-06T22:28:38.432Z,6.50
2023-01-06T22:31:10.461Z,6.00
2023-01-06T22:33:39.436Z,6.20
2023-01-06T22:36:08.551Z,5.88
2023-01-06T22:38:37.268Z,6.13
2023-01-06T22:41:07.325Z,6.07
2023-01-06T22:43:37.282Z,6.70
2023-01-06T22:46:05.637Z,6.55
2023-01-06T22:48:33.959Z,6.40
2023-01-06T22:51:04.453Z,6.30
2023-01-06T22:53:33.931Z,6.30
2023-01-06T22:56:03.888Z,6.68
2023-01-06T22:58:32.463Z,6.47
2023-01-06T23:01:02.473Z,6.13
2023-01-06T23:03:31.362Z,6.22
2023-01-06T23:06:04.672Z,6.22
2023-01-06T23:08:35.216Z,6.18
2023-01-06T23:11:06.299Z,6.72
2023-01-06T23:13:36.504Z,6.35
2023-01-06T23:16:11.235Z,6.85
2023-01-06T23:18:45.809Z,6.05
2023-01-06T23:21:16.105Z,6.28
2023-01-06T23:23:47.538Z,6.32
2023-01-06T23:26:18.221Z,7.00
2023-01-06T23:28:47.792Z,8.93
2023-01-06T23:31:21.405Z,6.43
2023-01-06T23:33:51.514Z,5.97
2023-01-06T23:36:22.267Z,6.03
2023-01-06T23:38:55.981Z,5.82
2023-01-06T23:41:27.284Z,6.22
2023-01-06T23:43:57.678Z,5.85
2023-01-06T23:46:33.031Z,5.22
2023-01-06T23:49:03.401Z,4.53
2023-01-06T23:51:32.537Z,5.05
2023-01-06T23:54:08.702Z,5.28
2023-01-06T23:56:39.535Z,5.18
2023-01-06T23:59:10.758Z,5.00
